createdAt,value
2022-10-06T00:01:03.048Z,4.15
2022-10-06T00:03:30.934Z,2.42
2022-10-06T00:06:00.914Z,3.38
2022-10-06T00:08:27.624Z,4.10
2022-10-06T00:10:55.024Z,3.30
2022-10-06T00:13:21.297Z,2.63
2022-10-06T00:15:47.638Z,3.38
2022-10-06T00:18:13.870Z,2.38
2022-10-06T00:20:43.245Z,2.42
2022-10-06T00:23:09.634Z,2.95
2022-10-06T00:25:36.309Z,3.88
2022-10-06T00:28:02.577Z,1.45
2022-10-06T00:30:29.556Z,2.67
2022-10-06T00:33:00.591Z,3.05
2022-10-06T00:35:28.218Z,3.55
2022-10-06T00:37:54.705Z,3.42
2022-10-06T00:40:22.017Z,3.65
2022-10-06T00:43:01.688Z,4.20
2022-10-06T00:45:27.944Z,2.95
2022-10-06T00:47:54.825Z,5.18
2022-10-06T00:50:21.115Z,2.53
2022-10-06T00:52:47.561Z,3.03
2022-10-06T00:55:14.175Z,4.43
2022-10-06T00:57:41.066Z,3.17
2022-10-06T01:00:08.547Z,5.50
2022-10-06T01:02:38.620Z,3.60
2022-10-06T01:05:05.441Z,4.47
2022-10-06T01:07:32.367Z,4.38
2022-10-06T01:09:59.039Z,4.53
2022-10-06T01:12:27.263Z,2.97
2022-10-06T01:14:53.574Z,2.90
2022-10-06T01:17:44.019Z,3.33
2022-10-06T01:20:15.210Z,4.43
2022-10-06T01:22:43.436Z,3.58
2022-10-06T01:25:10.821Z,4.57
2022-10-06T01:27:38.121Z,4.25
2022-10-06T01:30:05.512Z,4.15
2022-10-06T01:32:33.254Z,4.43
2022-10-06T01:34:59.508Z,3.45
2022-10-06T01:37:25.810Z,3.13
2022-10-06T01:39:52.164Z,2.85
2022-10-06T01:42:18.437Z,2.67
2022-10-06T01:44:44.660Z,4.13
2022-10-06T01:47:10.911Z,3.42
2022-10-06T01:49:37.202Z,3.08
2022-10-06T01:52:03.918Z,4.53
2022-10-06T01:54:30.180Z,4.88
2022-10-06T01:56:56.671Z,3.67
2022-10-06T01:59:23.244Z,2.83
2022-10-06T02:01:49.547Z,5.03
2022-10-06T02:04:15.872Z,3.67
2022-10-06T02:06:42.403Z,4.25
2022-10-06T02:09:08.833Z,4.93
2022-10-06T02:11:35.161Z,4.88
2022-10-06T02:14:02.273Z,4.47
2022-10-06T02:16:29.946Z,2.75
2022-10-06T02:18:56.321Z,3.63
2022-10-06T02:21:22.900Z,3.35
2022-10-06T02:23:49.296Z,4.22
2022-10-06T02:26:19.377Z,5.00
2022-10-06T02:28:46.778Z,4.93
2022-10-06T02:31:13.928Z,4.18
2022-10-06T02:33:40.614Z,3.47
2022-10-06T02:36:07.684Z,6.70
2022-10-06T02:38:34.184Z,4.18
2022-10-06T02:41:01.961Z,3.50
2022-10-06T02:43:31.796Z,8.13
2022-10-06T02:45:59.212Z,4.45
2022-10-06T02:48:27.004Z,3.92
2022-10-06T02:50:57.840Z,3.90
2022-10-06T02:53:27.183Z,6.13
2022-10-06T02:56:00.568Z,4.28
2022-10-06T02:58:27.973Z,3.53
2022-10-06T03:00:54.500Z,4.00
2022-10-06T03:03:20.777Z,4.13
2022-10-06T03:05:47.008Z,4.25
2022-10-06T03:08:13.270Z,4.53
2022-10-06T03:10:39.518Z,8.00
2022-10-06T03:13:06.014Z,4.97
2022-10-06T03:15:32.253Z,6.65
2022-10-06T03:17:58.508Z,4.50
2022-10-06T03:20:24.736Z,4.25
2022-10-06T03:22:53.088Z,5.32
2022-10-06T03:25:19.396Z,5.00
2022-10-06T03:27:45.701Z,4.43
2022-10-06T03:30:12.118Z,4.82
2022-10-06T03:32:38.478Z,3.65
2022-10-06T03:35:04.979Z,4.93
2022-10-06T03:37:31.764Z,3.75
2022-10-06T03:39:58.044Z,6.32
2022-10-06T03:42:24.303Z,4.57
2022-10-06T03:44:50.634Z,3.72
2022-10-06T03:47:17.600Z,8.73
2022-10-06T03:49:44.001Z,5.22
2022-10-06T03:52:10.230Z,4.72
2022-10-06T03:54:36.685Z,5.28
2022-10-06T03:57:03.373Z,4.00
2022-10-06T03:59:34.064Z,4.70
2022-10-06T04:02:00.381Z,6.50
2022-10-06T04:04:27.621Z,5.00
2022-10-06T04:06:53.864Z,6.05
2022-10-06T04:09:20.087Z,4.70
2022-10-06T04:11:46.440Z,5.20
2022-10-06T04:14:15.067Z,4.43
2022-10-06T04:16:45.375Z,4.53
2022-10-06T04:19:12.580Z,3.70
2022-10-06T04:21:39.551Z,4.40
2022-10-06T04:24:06.614Z,6.13
2022-10-06T04:26:34.756Z,4.35
2022-10-06T04:29:01.081Z,4.20
2022-10-06T04:31:28.370Z,7.85
2022-10-06T04:33:55.800Z,4.70
2022-10-06T04:36:23.434Z,3.70
2022-10-06T04:38:50.938Z,5.65
2022-10-06T04:41:18.596Z,3.65
2022-10-06T04:43:48.251Z,7.97
2022-10-06T04:46:40.968Z,7.78
2022-10-06T04:51:28.296Z,3.65
2022-10-06T04:53:54.507Z,5.68
2022-10-06T04:56:24.240Z,5.78
2022-10-06T04:58:51.241Z,3.50
2022-10-06T05:01:19.363Z,4.88
2022-10-06T05:03:46.719Z,5.00
2022-10-06T05:06:19.169Z,6.80
2022-10-06T05:08:52.374Z,6.03
2022-10-06T05:11:22.474Z,5.15
2022-10-06T05:13:54.744Z,4.05
2022-10-06T05:16:22.108Z,5.60
2022-10-06T05:18:48.449Z,5.07
2022-10-06T05:21:19.029Z,5.55
2022-10-06T05:23:45.854Z,9.43
2022-10-06T05:26:12.799Z,5.50
2022-10-06T05:28:39.390Z,4.55
2022-10-06T05:31:07.746Z,9.38
2022-10-06T05:33:35.052Z,8.27
2022-10-06T05:36:02.866Z,7.70
2022-10-06T05:38:29.605Z,8.65
2022-10-06T05:41:03.548Z,6.20
2022-10-06T05:43:29.902Z,9.38
2022-10-06T05:45:56.922Z,8.18
2022-10-06T05:48:23.447Z,7.20
2022-10-06T05:50:57.511Z,6.88
2022-10-06T05:53:24.263Z,8.25
2022-10-06T05:55:50.497Z,7.47
2022-10-06T05:58:18.604Z,6.15
2022-10-06T06:00:46.029Z,7.05
2022-10-06T06:03:12.297Z,6.13
2022-10-06T06:05:42.321Z,6.75
2022-10-06T06:08:10.499Z,7.43
2022-10-06T06:10:37.129Z,7.55
2022-10-06T06:13:04.043Z,7.57
2022-10-06T06:15:49.034Z,10.10
2022-10-06T06:18:15.297Z,4.40
2022-10-06T06:20:41.536Z,5.68
2022-10-06T06:23:07.752Z,4.82
2022-10-06T06:25:36.925Z,8.93
2022-10-06T06:28:03.271Z,5.05
2022-10-06T06:30:29.574Z,7.95
2022-10-06T06:33:00.091Z,5.63
2022-10-06T06:35:26.312Z,6.70
2022-10-06T06:37:52.560Z,6.57
2022-10-06T06:40:18.794Z,7.05
2022-10-06T06:42:45.012Z,6.05
2022-10-06T06:45:11.320Z,5.53
2022-10-06T06:47:40.727Z,7.95
2022-10-06T06:50:10.230Z,7.85
2022-10-06T06:52:37.004Z,8.60
2022-10-06T06:55:03.367Z,9.27
2022-10-06T06:57:29.628Z,7.50
2022-10-06T06:59:56.995Z,7.97
2022-10-06T07:02:26.475Z,9.77
2022-10-06T07:04:52.835Z,5.85
2022-10-06T07:07:20.812Z,7.00
2022-10-06T07:09:47.061Z,8.20
2022-10-06T07:12:13.333Z,7.75
2022-10-06T07:14:59.552Z,6.18
2022-10-06T07:17:44.827Z,8.77
2022-10-06T07:20:29.773Z,6.35
2022-10-06T07:23:14.467Z,6.93
2022-10-06T07:25:40.715Z,7.13
2022-10-06T07:28:07.734Z,6.60
2022-10-06T07:30:38.400Z,6.53
2022-10-06T07:33:06.863Z,9.73
2022-10-06T07:35:33.122Z,9.18
2022-10-06T07:38:02.141Z,7.28
2022-10-06T07:40:28.398Z,8.98
2022-10-06T07:42:54.652Z,6.90
2022-10-06T07:45:38.248Z,8.40
2022-10-06T07:48:06.059Z,5.45
2022-10-06T07:50:32.713Z,7.47
2022-10-06T07:53:04.817Z,8.95
2022-10-06T07:55:31.828Z,8.55
2022-10-06T07:57:58.068Z,8.45
2022-10-06T08:00:26.538Z,5.85
2022-10-06T08:02:54.740Z,8.60
2022-10-06T08:05:21.583Z,5.88
2022-10-06T08:07:51.379Z,8.05
2022-10-06T08:10:18.521Z,8.82
2022-10-06T08:12:44.759Z,8.05
2022-10-06T08:15:12.878Z,5.18
2022-10-06T08:17:39.527Z,7.28
2022-10-06T08:20:06.788Z,8.38
2022-10-06T08:22:33.245Z,8.63
2022-10-06T08:25:07.269Z,6.60
2022-10-06T08:27:34.951Z,5.90
2022-10-06T08:30:01.396Z,5.68
2022-10-06T08:32:27.670Z,6.25
2022-10-06T08:34:54.311Z,6.45
2022-10-06T08:37:23.679Z,5.85
2022-10-06T08:39:50.747Z,8.02
2022-10-06T08:42:20.560Z,6.38
2022-10-06T08:44:49.047Z,6.95
2022-10-06T08:47:22.736Z,8.23
2022-10-06T08:49:50.698Z,5.78
2022-10-06T08:52:35.772Z,6.10
2022-10-06T08:55:20.438Z,5.13
2022-10-06T08:58:06.971Z,8.20
2022-10-06T09:00:33.695Z,6.45
2022-10-06T09:03:01.040Z,6.85
2022-10-06T09:05:29.659Z,6.28
2022-10-06T09:07:59.302Z,6.40
2022-10-06T09:10:25.525Z,8.38
2022-10-06T09:12:56.041Z,7.88
2022-10-06T09:15:22.257Z,6.10
2022-10-06T09:17:54.386Z,8.50
2022-10-06T09:20:32.588Z,7.03
2022-10-06T09:23:00.299Z,9.15
2022-10-06T09:25:29.026Z,7.03
2022-10-06T09:27:56.426Z,5.55
2022-10-06T09:30:23.905Z,6.47
2022-10-06T09:33:00.384Z,8.00
2022-10-06T09:35:28.235Z,7.75
2022-10-06T09:37:57.008Z,4.43
2022-10-06T09:40:32.657Z,6.07
2022-10-06T09:42:58.905Z,7.70
2022-10-06T09:45:25.538Z,7.03
2022-10-06T09:47:51.780Z,5.63
2022-10-06T09:50:20.316Z,6.82
2022-10-06T09:52:49.468Z,7.43
2022-10-06T09:55:18.128Z,7.15
2022-10-06T09:57:51.497Z,7.53
2022-10-06T10:00:37.111Z,6.78
2022-10-06T10:03:07.612Z,8.13
2022-10-06T10:05:36.022Z,6.85
2022-10-06T10:08:06.215Z,8.35
2022-10-06T10:10:35.106Z,6.75
2022-10-06T10:13:01.627Z,3.92
2022-10-06T10:15:33.068Z,6.55
2022-10-06T10:18:03.083Z,5.65
2022-10-06T10:20:37.560Z,5.35
2022-10-06T10:23:07.248Z,7.47
2022-10-06T10:25:33.460Z,5.40
2022-10-06T10:28:14.635Z,11.00
2022-10-06T10:30:46.918Z,7.38
2022-10-06T10:33:18.618Z,9.10
2022-10-06T10:35:47.076Z,5.90
2022-10-06T10:38:18.523Z,7.18
2022-10-06T10:40:48.933Z,6.45
2022-10-06T10:43:24.537Z,3.95
2022-10-06T10:45:54.296Z,9.13
2022-10-06T10:48:24.203Z,6.93
2022-10-06T10:50:54.197Z,4.55
2022-10-06T10:53:28.635Z,7.65
2022-10-06T10:55:55.452Z,8.30
2022-10-06T10:58:31.846Z,7.13
2022-10-06T11:03:24.334Z,3.90
2022-10-06T11:06:17.617Z,6.60
2022-10-06T11:08:50.029Z,6.20
2022-10-06T11:11:20.457Z,7.32
2022-10-06T11:13:48.804Z,5.65
2022-10-06T11:16:24.052Z,4.82
2022-10-06T11:18:50.280Z,6.65
2022-10-06T11:21:23.934Z,6.82
2022-10-06T11:23:53.444Z,5.40
2022-10-06T11:26:29.865Z,5.65
2022-10-06T11:29:07.963Z,9.35
2022-10-06T11:31:36.082Z,5.80
2022-10-06T11:34:03.737Z,6.38
2022-10-06T11:36:52.344Z,6.22
2022-10-06T11:39:18.636Z,6.25
2022-10-06T11:41:49.345Z,4.90
2022-10-06T11:44:15.602Z,2.63
2022-10-06T11:47:02.109Z,6.32
2022-10-06T11:49:28.360Z,4.53
2022-10-06T11:51:59.104Z,5.50
2022-10-06T11:54:47.665Z,4.68
2022-10-06T11:57:26.530Z,5.70
2022-10-06T11:59:55.859Z,4.18
2022-10-06T12:02:34.579Z,3.42
2022-10-06T12:05:28.656Z,6.00
2022-10-06T12:07:56.607Z,2.88
2022-10-06T12:10:45.791Z,4.80
2022-10-06T12:19:19.421Z,4.13
2022-10-06T12:21:50.600Z,4.05
2022-10-06T12:24:19.646Z,5.25
2022-10-06T12:27:04.784Z,3.22
2022-10-06T12:29:43.723Z,4.85
2022-10-06T12:32:15.905Z,5.07
2022-10-06T12:34:43.807Z,5.97
2022-10-06T12:37:19.863Z,2.58
2022-10-06T12:39:46.114Z,9.02
2022-10-06T12:42:19.704Z,4.78
2022-10-06T12:44:49.872Z,4.30
2022-10-06T12:47:21.910Z,3.40
2022-10-06T12:49:56.635Z,4.70
2022-10-06T12:52:38.061Z,5.90
2022-10-06T12:55:20.344Z,4.88
2022-10-06T12:57:47.395Z,5.20
2022-10-06T13:00:23.182Z,4.53
2022-10-06T13:02:50.712Z,3.83
2022-10-06T13:05:17.028Z,4.22
2022-10-06T13:07:57.106Z,2.88
2022-10-06T13:10:23.795Z,4.88
2022-10-06T13:12:52.471Z,5.13
2022-10-06T13:15:23.259Z,5.10
2022-10-06T13:17:51.012Z,4.03
2022-10-06T13:20:22.485Z,4.28
2022-10-06T13:22:55.432Z,3.38
2022-10-06T13:25:21.678Z,7.35
2022-10-06T13:27:51.540Z,4.60
2022-10-06T13:30:21.800Z,4.05
2022-10-06T13:32:52.092Z,3.75
2022-10-06T13:35:19.897Z,5.00
2022-10-06T13:37:46.187Z,2.60
2022-10-06T13:40:21.711Z,4.43
2022-10-06T13:42:48.349Z,5.13
2022-10-06T13:45:14.943Z,3.10
2022-10-06T13:47:41.276Z,6.53
2022-10-06T13:50:07.603Z,4.35
2022-10-06T13:52:40.808Z,4.63
2022-10-06T13:55:17.925Z,3.33
2022-10-06T13:57:45.473Z,2.85
2022-10-06T14:00:21.792Z,1.48
2022-10-06T14:02:49.348Z,2.55
2022-10-06T14:05:21.793Z,4.57
2022-10-06T14:07:48.867Z,3.60
2022-10-06T14:10:31.300Z,3.45
2022-10-06T14:12:59.140Z,3.80
2022-10-06T14:15:30.090Z,3.95
2022-10-06T14:18:01.098Z,3.78
2022-10-06T14:20:46.319Z,4.15
2022-10-06T14:23:31.085Z,3.30
2022-10-06T14:25:57.420Z,4.88
2022-10-06T14:28:23.853Z,3.60
2022-10-06T14:30:50.232Z,3.88
2022-10-06T14:33:17.027Z,2.92
2022-10-06T14:35:44.117Z,4.53
2022-10-06T14:38:10.665Z,3.53
2022-10-06T14:40:40.558Z,3.85
2022-10-06T14:43:06.868Z,5.30
2022-10-06T14:45:35.996Z,3.35
2022-10-06T14:48:04.344Z,2.72
2022-10-06T14:50:33.743Z,1.83
2022-10-06T14:52:59.952Z,2.08
2022-10-06T14:55:30.363Z,3.33
2022-10-06T14:57:59.887Z,7.53
2022-10-06T15:00:28.977Z,3.30
2022-10-06T15:02:56.232Z,5.22
2022-10-06T15:05:23.190Z,3.58
2022-10-06T15:08:08.174Z,5.72
2022-10-06T15:10:36.018Z,2.72
2022-10-06T15:13:02.481Z,3.40
2022-10-06T15:15:29.480Z,3.38
2022-10-06T15:17:55.735Z,3.42
2022-10-06T15:20:21.964Z,2.33
2022-10-06T15:22:48.302Z,3.17
2022-10-06T15:25:34.550Z,2.13
2022-10-06T15:28:22.840Z,2.15
2022-10-06T15:30:50.057Z,4.15
2022-10-06T15:33:17.195Z,2.72
2022-10-06T15:35:47.507Z,3.20
2022-10-06T15:38:13.978Z,4.40
2022-10-06T15:40:40.209Z,3.50
2022-10-06T15:43:06.404Z,5.25
2022-10-06T15:45:32.635Z,4.35
2022-10-06T15:47:58.868Z,6.63
2022-10-06T15:50:25.097Z,4.82
2022-10-06T15:52:51.347Z,4.35
2022-10-06T15:55:17.643Z,4.43
2022-10-06T15:57:43.951Z,5.07
2022-10-06T16:00:10.661Z,5.72
2022-10-06T16:02:37.811Z,3.10
2022-10-06T16:05:04.304Z,6.88
2022-10-06T16:07:32.550Z,4.88
2022-10-06T16:09:58.776Z,6.28
2022-10-06T16:12:25.141Z,4.13
2022-10-06T16:14:51.685Z,3.50
2022-10-06T16:17:18.347Z,2.53
2022-10-06T16:19:44.810Z,3.00
2022-10-06T16:22:12.320Z,6.25
2022-10-06T16:24:38.784Z,6.43
2022-10-06T16:27:05.336Z,4.90
2022-10-06T16:29:31.970Z,5.13
2022-10-06T16:31:59.176Z,6.78
2022-10-06T16:34:25.562Z,5.53
2022-10-06T16:36:51.989Z,5.07
2022-10-06T16:39:20.116Z,4.55
2022-10-06T16:41:47.004Z,4.90
2022-10-06T16:44:13.349Z,5.55
2022-10-06T16:46:39.717Z,4.00
2022-10-06T16:49:08.360Z,6.47
2022-10-06T16:51:36.176Z,5.43
2022-10-06T16:54:04.433Z,4.28
2022-10-06T16:56:39.026Z,5.82
2022-10-06T16:59:07.286Z,5.75
2022-10-06T17:01:35.181Z,6.15
2022-10-06T17:04:03.324Z,9.25
2022-10-06T17:06:30.116Z,6.47
2022-10-06T17:08:56.717Z,7.68
2022-10-06T17:11:25.145Z,6.68
2022-10-06T17:13:52.873Z,8.77
2022-10-06T17:16:20.540Z,8.57
2022-10-06T17:18:47.693Z,9.05
2022-10-06T17:21:39.572Z,9.55
2022-10-06T17:24:02.165Z,9.30
2022-10-06T17:26:29.559Z,8.73
2022-10-06T17:28:57.041Z,8.57
2022-10-06T17:31:23.944Z,6.80
2022-10-06T17:33:50.332Z,8.80
2022-10-06T17:36:18.509Z,8.13
2022-10-06T17:38:46.013Z,8.65
2022-10-06T17:41:13.404Z,10.93
2022-10-06T17:43:40.491Z,13.07
2022-10-06T17:46:10.203Z,12.30
2022-10-06T17:48:36.481Z,11.10
2022-10-06T17:51:02.771Z,15.38
2022-10-06T17:53:29.060Z,12.68
2022-10-06T17:55:55.397Z,11.50
2022-10-06T17:58:22.075Z,16.38
2022-10-06T18:00:48.765Z,12.68
2022-10-06T18:03:15.058Z,15.18
2022-10-06T18:05:41.282Z,18.02
2022-10-06T18:08:09.988Z,19.10
2022-10-06T18:10:59.115Z,18.02
2022-10-06T18:13:25.999Z,23.02
2022-10-06T18:15:52.212Z,17.67
2022-10-06T18:18:25.045Z,15.82
2022-10-06T18:20:51.547Z,16.35
2022-10-06T18:23:17.810Z,18.80
2022-10-06T18:25:45.075Z,11.35
2022-10-06T18:28:11.979Z,12.82
2022-10-06T18:30:38.263Z,16.95
2022-10-06T18:36:09.541Z,13.80
2022-10-06T18:38:42.694Z,13.02
2022-10-06T18:41:11.841Z,13.88
2022-10-06T18:43:38.410Z,16.73
2022-10-06T18:46:24.591Z,10.93
2022-10-06T18:49:00.604Z,13.27
2022-10-06T18:51:31.746Z,11.57
2022-10-06T18:53:59.414Z,9.95
2022-10-06T18:56:29.967Z,8.52
2022-10-06T18:58:57.765Z,9.45
2022-10-06T19:01:26.222Z,9.38
2022-10-06T19:03:54.596Z,11.52
2022-10-06T19:06:21.078Z,9.98
2022-10-06T19:08:50.749Z,8.35
2022-10-06T19:11:35.757Z,12.43
2022-10-06T19:14:02.306Z,10.80
2022-10-06T19:16:28.778Z,8.32
2022-10-06T19:18:55.355Z,7.80
2022-10-06T19:21:21.588Z,9.60
2022-10-06T19:23:48.005Z,8.30
2022-10-06T19:26:14.265Z,7.38
2022-10-06T19:28:40.675Z,6.63
2022-10-06T19:31:09.458Z,9.32
2022-10-06T19:33:36.608Z,9.55
2022-10-06T19:36:03.660Z,11.52
2022-10-06T19:38:30.187Z,4.78
2022-10-06T19:41:16.367Z,5.82
2022-10-06T19:43:42.651Z,6.20
2022-10-06T19:46:09.105Z,10.07
2022-10-06T19:48:37.354Z,7.55
2022-10-06T19:51:13.956Z,7.15
2022-10-06T19:53:41.040Z,7.47
2022-10-06T19:56:07.556Z,6.32
2022-10-06T19:58:34.880Z,6.35
2022-10-06T20:01:03.972Z,8.27
2022-10-06T20:03:31.384Z,5.88
2022-10-06T20:06:02.393Z,5.53
2022-10-06T20:08:29.757Z,7.55
2022-10-06T20:11:03.190Z,5.45
2022-10-06T20:13:31.653Z,7.72
2022-10-06T20:16:00.132Z,5.65
2022-10-06T20:18:26.941Z,4.30
2022-10-06T20:20:57.327Z,6.55
2022-10-06T20:23:23.593Z,5.50
2022-10-06T20:25:49.837Z,7.47
2022-10-06T20:28:16.216Z,7.43
2022-10-06T20:30:49.568Z,5.80
2022-10-06T20:33:17.227Z,6.50
2022-10-06T20:35:43.651Z,10.25
2022-10-06T20:38:09.867Z,7.97
2022-10-06T20:40:48.973Z,6.22
2022-10-06T20:43:15.488Z,7.75
2022-10-06T20:45:41.880Z,6.13
2022-10-06T20:48:08.098Z,8.23
2022-10-06T20:50:34.502Z,5.95
2022-10-06T20:53:00.845Z,6.80
2022-10-06T20:55:27.076Z,6.63
2022-10-06T20:57:53.389Z,7.38
2022-10-06T21:00:19.845Z,5.25
2022-10-06T21:02:46.205Z,5.00
2022-10-06T21:05:12.512Z,5.25
2022-10-06T21:07:39.056Z,8.18
2022-10-06T21:10:05.603Z,5.60
2022-10-06T21:12:32.227Z,4.78
2022-10-06T21:14:58.529Z,7.15
2022-10-06T21:17:24.778Z,9.20
2022-10-06T21:19:51.056Z,6.25
2022-10-06T21:22:17.270Z,4.30
2022-10-06T21:24:43.543Z,7.22
2022-10-06T21:27:09.873Z,6.18
2022-10-06T21:29:36.277Z,5.13
2022-10-06T21:32:02.511Z,5.82
2022-10-06T21:34:28.919Z,5.43
2022-10-06T21:36:55.245Z,6.18
2022-10-06T21:39:21.551Z,6.40
2022-10-06T21:41:47.809Z,8.05
2022-10-06T21:44:15.192Z,7.40
2022-10-06T21:46:47.288Z,5.22
2022-10-06T21:49:15.067Z,5.70
2022-10-06T21:51:41.992Z,5.97
2022-10-06T21:54:10.259Z,7.32
2022-10-06T21:56:36.902Z,5.80
2022-10-06T21:59:04.498Z,5.90
2022-10-06T22:01:32.255Z,3.90
2022-10-06T22:04:00.177Z,4.95
2022-10-06T22:06:27.691Z,7.93
2022-10-06T22:08:53.999Z,5.18
2022-10-06T22:11:21.549Z,5.05
2022-10-06T22:13:49.047Z,6.78
2022-10-06T22:16:16.633Z,5.25
2022-10-06T22:18:42.947Z,5.15
2022-10-06T22:21:17.259Z,5.82
2022-10-06T22:23:44.490Z,5.40
2022-10-06T22:26:12.225Z,4.93
2022-10-06T22:28:38.767Z,5.38
2022-10-06T22:31:09.664Z,7.50
2022-10-06T22:33:36.719Z,4.82
2022-10-06T22:36:03.029Z,6.93
2022-10-06T22:38:30.061Z,5.85
2022-10-06T22:41:03.494Z,7.85
2022-10-06T22:43:29.826Z,5.13
2022-10-06T22:45:56.390Z,6.15
2022-10-06T22:48:22.985Z,5.72
2022-10-06T22:50:49.282Z,4.95
2022-10-06T22:53:16.478Z,5.43
2022-10-06T22:55:42.690Z,4.43
2022-10-06T22:58:08.973Z,6.07
2022-10-06T23:00:35.808Z,5.80
2022-10-06T23:03:02.123Z,7.35
2022-10-06T23:05:28.769Z,5.72
2022-10-06T23:07:54.978Z,5.53
2022-10-06T23:10:22.561Z,4.88
2022-10-06T23:12:54.684Z,5.35
2022-10-06T23:15:21.014Z,6.05
2022-10-06T23:17:47.525Z,4.97
2022-10-06T23:20:14.170Z,5.18
2022-10-06T23:22:40.657Z,3.80
2022-10-06T23:25:07.090Z,21.88
2022-10-06T23:27:33.659Z,5.65
2022-10-06T23:29:59.891Z,4.28
2022-10-06T23:32:26.177Z,3.42
2022-10-06T23:34:52.442Z,6.13
2022-10-06T23:37:18.656Z,4.97
2022-10-06T23:39:44.977Z,5.88
2022-10-06T23:42:11.292Z,4.85
2022-10-06T23:44:37.514Z,5.10
2022-10-06T23:47:04.471Z,5.63
2022-10-06T23:49:33.407Z,6.13
2022-10-06T23:52:02.289Z,3.83
2022-10-06T23:54:28.828Z,5.03
2022-10-06T23:56:55.654Z,4.38
2022-10-06T23:59:22.311Z,5.07
